Time;durP1;ratioP1;P1;durP2;ratioP2;P2;SDS_P1;SDS_P2;PMS_P1;PMS_P2;Temp;Humidity;BMP_temperature;BMP_pressure;BME280_temperature;BME280_humidity;BME280_pressure;Samples;Min_cycle;Max_cycle;Signal;HPM_P1;HPM_P2
2020/12/06 00:00:33;;;;;;;2.20;1.42;;;;;;;6.18;79.53;97937.56;1649921;87;21203;-72
2020/12/06 00:03:02;;;;;;;1.60;1.00;;;;;;;6.16;79.41;97943.29;1649723;86;21616;-72
2020/12/06 00:05:30;;;;;;;1.30;1.00;;;;;;;6.12;79.51;97941.88;1649778;87;21822;-71
2020/12/06 00:07:58;;;;;;;2.00;1.35;;;;;;;6.09;79.50;97944.69;1649871;87;21324;-72
2020/12/06 00:10:26;;;;;;;4.95;1.40;;;;;;;6.07;79.40;97952.20;1649793;87;21345;-72
2020/12/06 00:12:53;;;;;;;2.70;1.75;;;;;;;6.01;79.54;97946.20;1650057;87;21667;-73
2020/12/06 00:15:21;;;;;;;2.87;1.62;;;;;;;5.94;80.11;97958.73;1650064;87;21325;-73
2020/12/06 00:17:49;;;;;;;3.83;2.02;;;;;;;5.88;80.20;97953.19;1649864;87;21203;-69
2020/12/06 00:20:17;;;;;;;2.70;1.72;;;;;;;5.89;80.35;97958.70;1650072;87;21215;-68
2020/12/06 00:22:46;;;;;;;6.45;1.85;;;;;;;5.84;80.58;97957.72;1650208;87;21211;-69
2020/12/06 00:25:14;;;;;;;2.52;1.60;;;;;;;5.79;80.68;97954.69;1650535;87;21195;-70
2020/12/06 00:27:42;;;;;;;1.82;1.40;;;;;;;5.76;80.58;97958.75;1650210;87;21624;-68
2020/12/06 00:30:10;;;;;;;6.22;1.70;;;;;;;5.72;80.71;97962.48;1649892;87;21222;-68
2020/12/06 00:32:40;;;;;;;3.22;1.80;;;;;;;5.65;80.91;97965.98;1649877;87;21191;-72
2020/12/06 00:35:09;;;;;;;4.25;2.45;;;;;;;5.64;80.75;97960.97;1650051;87;21207;-72
2020/12/06 00:37:39;;;;;;;3.85;2.30;;;;;;;5.58;80.68;97960.11;1649871;87;21774;-72
2020/12/06 00:40:08;;;;;;;3.60;2.10;;;;;;;5.53;81.29;97963.01;1649824;87;21346;-72
2020/12/06 00:42:37;;;;;;;5.75;2.12;;;;;;;5.50;81.45;97957.27;1649927;87;21254;-71
2020/12/06 00:45:06;;;;;;;2.40;1.60;;;;;;;5.49;81.24;97964.16;1650247;87;21194;-71
2020/12/06 00:47:38;;;;;;;4.15;2.22;;;;;;;5.44;81.59;97961.13;1649921;87;21392;-71
2020/12/06 00:50:07;;;;;;;3.62;1.60;;;;;;;5.45;81.57;97962.73;1649882;87;21199;-72
2020/12/06 00:52:36;;;;;;;2.58;1.90;;;;;;;5.44;81.79;97969.31;1649716;87;21309;-71
2020/12/06 00:55:05;;;;;;;2.85;1.55;;;;;;;5.42;81.46;97967.30;1650123;87;21195;-72
2020/12/06 00:57:34;;;;;;;4.67;2.20;;;;;;;5.41;81.80;97965.67;1650526;87;21329;-73
2020/12/06 01:00:07;;;;;;;4.05;2.17;;;;;;;5.38;81.52;97966.70;1650395;87;21191;-73
2020/12/06 01:02:35;;;;;;;3.52;1.90;;;;;;;5.36;81.61;97965.17;1646825;87;21195;-72
2020/12/06 01:05:04;;;;;;;4.10;2.33;;;;;;;5.34;81.36;97967.02;1650492;87;21652;-71
2020/12/06 01:07:41;;;;;;;5.10;2.08;;;;;;;5.31;81.05;97971.11;1650427;87;21160;-73
2020/12/06 01:10:11;;;;;;;5.78;2.35;;;;;;;5.25;82.13;97966.75;1650144;87;21243;-72
2020/12/06 01:12:40;;;;;;;3.40;1.87;;;;;;;5.22;81.30;97961.00;1650156;87;21610;-72
2020/12/06 01:15:10;;;;;;;2.55;1.82;;;;;;;5.19;81.42;97962.51;1649937;87;21364;-71
2020/12/06 01:17:38;;;;;;;6.28;1.80;;;;;;;5.14;81.44;97954.28;1650169;87;21618;-71
2020/12/06 01:20:08;;;;;;;3.02;1.90;;;;;;;5.11;80.90;97950.19;1650280;87;21711;-72
2020/12/06 01:22:37;;;;;;;2.90;1.75;;;;;;;5.06;82.09;97945.81;1650889;87;21202;-72
2020/12/06 01:25:06;;;;;;;2.98;1.85;;;;;;;5.04;82.02;97948.98;1650494;87;21314;-71
2020/12/06 01:27:34;;;;;;;3.47;1.62;;;;;;;5.03;82.50;97948.62;1651256;87;21211;-71
2020/12/06 01:30:04;;;;;;;3.05;1.70;;;;;;;5.03;82.20;97946.05;1651088;87;21260;-72
2020/12/06 01:32:32;;;;;;;5.95;1.57;;;;;;;5.03;82.67;97944.76;1651185;87;21208;-72
2020/12/06 01:35:02;;;;;;;4.12;2.33;;;;;;;5.05;82.81;97948.06;1650032;87;21746;-68
2020/12/06 01:37:31;;;;;;;5.15;2.27;;;;;;;5.05;82.72;97940.34;1651332;87;21353;-71
2020/12/06 01:39:59;;;;;;;4.90;2.87;;;;;;;5.06;82.66;97950.14;1651315;87;21313;-72
2020/12/06 01:42:27;;;;;;;5.10;2.50;;;;;;;5.03;81.82;97946.05;1650622;87;21195;-72
2020/12/06 01:44:59;;;;;;;4.47;2.00;;;;;;;5.03;81.90;97954.22;1651062;87;21357;-67
2020/12/06 01:47:28;;;;;;;10.45;2.05;;;;;;;5.01;82.34;97950.95;1650043;87;21222;-67
2020/12/06 01:49:57;;;;;;;3.80;2.10;;;;;;;4.98;81.56;97947.31;1649810;87;21163;-68
2020/12/06 01:52:29;;;;;;;8.28;2.15;;;;;;;4.94;82.24;97945.39;1649917;87;21230;-69
2020/12/06 01:54:56;;;;;;;5.20;2.27;;;;;;;4.90;81.45;97942.72;1650020;87;21151;-68
2020/12/06 01:57:24;;;;;;;4.30;2.37;;;;;;;4.86;81.09;97940.00;1649820;87;21207;-68
2020/12/06 01:59:51;;;;;;;8.70;2.10;;;;;;;4.83;82.34;97946.62;1649819;87;21206;-68
2020/12/06 02:02:21;;;;;;;3.65;2.00;;;;;;;4.79;81.62;97942.16;1649767;87;21226;-68
2020/12/06 02:04:53;;;;;;;3.25;2.02;;;;;;;4.75;81.45;97947.62;1649823;87;21210;-68
2020/12/06 02:07:22;;;;;;;3.58;2.15;;;;;;;4.71;81.86;97950.05;1649847;87;21207;-68
2020/12/06 02:09:49;;;;;;;3.00;2.12;;;;;;;4.70;81.60;97941.99;1649853;87;21195;-68
2020/12/06 02:12:18;;;;;;;3.65;2.15;;;;;;;4.69;82.43;97940.34;1649805;87;21202;-68
2020/12/06 02:14:46;;;;;;;9.08;2.15;;;;;;;4.68;81.90;97939.52;1649996;87;21167;-71
2020/12/06 02:17:13;;;;;;;4.15;2.22;;;;;;;4.67;81.93;97942.18;1649923;87;21381;-72
2020/12/06 02:19:42;;;;;;;2.87;1.80;;;;;;;4.67;82.17;97944.75;1649841;87;21353;-72
2020/12/06 02:22:10;;;;;;;2.72;1.75;;;;;;;4.66;82.33;97940.10;1649737;87;21226;-72
2020/12/06 02:24:37;;;;;;;5.65;2.15;;;;;;;4.67;82.59;97940.44;1649778;87;21635;-72
2020/12/06 02:27:05;;;;;;;2.52;1.52;;;;;;;4.68;83.00;97941.26;1649905;87;21634;-72
2020/12/06 02:29:33;;;;;;;6.42;2.42;;;;;;;4.69;82.33;97932.16;1649754;87;21226;-72
2020/12/06 02:32:01;;;;;;;3.35;2.00;;;;;;;4.68;83.42;97929.69;1649853;87;21629;-71
2020/12/06 02:34:29;;;;;;;2.85;1.32;;;;;;;4.73;83.11;97928.45;1649838;87;21266;-72
2020/12/06 02:36:56;;;;;;;5.90;2.22;;;;;;;4.77;82.82;97923.91;1649910;87;21191;-72
2020/12/06 02:39:24;;;;;;;2.83;2.20;;;;;;;4.82;82.73;97932.13;1649856;87;21365;-72
2020/12/06 02:41:52;;;;;;;2.17;1.20;;;;;;;4.82;82.54;97935.99;1649704;87;21734;-72
2020/12/06 02:44:20;;;;;;;6.10;2.75;;;;;;;4.83;82.24;97932.47;1649868;87;21324;-71
2020/12/06 02:46:48;;;;;;;5.08;2.05;;;;;;;4.82;82.13;97921.84;1649798;87;21238;-72
2020/12/06 02:49:16;;;;;;;2.75;1.90;;;;;;;4.82;82.41;97928.28;1649847;87;21163;-72
2020/12/06 02:51:44;;;;;;;1.57;1.47;;;;;;;4.79;82.18;97935.72;1649933;87;21274;-72
2020/12/06 02:54:13;;;;;;;1.22;1.07;;;;;;;4.74;82.72;97941.67;1650029;87;21194;-71
2020/12/06 02:56:40;;;;;;;2.62;1.80;;;;;;;4.77;82.14;97930.34;1649926;87;21206;-72
2020/12/06 02:59:09;;;;;;;3.00;1.98;;;;;;;4.80;82.26;97931.41;1649994;87;21781;-68
2020/12/06 03:01:37;;;;;;;1.90;1.30;;;;;;;4.84;81.90;97930.26;1650164;87;21227;-67
2020/12/06 03:04:05;;;;;;;3.00;1.60;;;;;;;4.85;81.81;97935.77;1649507;85;21230;-69
2020/12/06 03:06:32;;;;;;;4.72;1.92;;;;;;;4.86;81.80;97940.00;1648818;87;21200;-68
2020/12/06 03:09:00;;;;;;;6.97;2.35;;;;;;;4.87;81.73;97944.19;1648667;86;21199;-68
2020/12/06 03:11:28;;;;;;;3.85;1.55;;;;;;;4.83;82.02;97939.36;1648668;86;21210;-68
2020/12/06 03:13:56;;;;;;;2.30;1.37;;;;;;;4.82;81.81;97929.56;1648567;87;21179;-68
2020/12/06 03:16:24;;;;;;;2.40;1.85;;;;;;;4.74;82.35;97936.53;1621005;86;21222;-69
2020/12/06 03:18:52;;;;;;;4.22;2.10;;;;;;;4.69;82.11;97937.31;1648888;86;21211;-69
2020/12/06 03:21:20;;;;;;;3.50;1.92;;;;;;;4.68;82.19;97932.25;1648757;86;21191;-70
2020/12/06 03:23:48;;;;;;;3.15;2.20;;;;;;;4.53;83.12;97933.33;1621238;86;21198;-72
2020/12/06 03:26:16;;;;;;;2.55;1.47;;;;;;;4.56;82.33;97939.53;1649347;86;21191;-73
2020/12/06 03:28:43;;;;;;;2.98;1.92;;;;;;;4.54;82.22;97936.27;1648907;85;21267;-72
2020/12/06 03:31:11;;;;;;;2.27;1.45;;;;;;;4.51;82.74;97928.77;1648845;86;21163;-72
2020/12/06 03:33:39;;;;;;;2.77;1.45;;;;;;;4.51;83.95;97937.77;1648660;85;21203;-72
2020/12/06 03:36:07;;;;;;;3.60;1.77;;;;;;;4.53;84.08;97942.32;1648826;85;21152;-72
2020/12/06 03:38:35;;;;;;;3.22;1.50;;;;;;;4.51;84.04;97934.73;1648988;86;21194;-68
2020/12/06 03:41:03;;;;;;;3.17;2.20;;;;;;;4.50;84.16;97939.52;1648680;86;21225;-68
2020/12/06 03:43:31;;;;;;;5.47;2.10;;;;;;;4.49;83.94;97946.86;1648676;86;21198;-67
2020/12/06 03:45:59;;;;;;;2.77;1.95;;;;;;;4.47;83.68;97942.76;1648679;85;21226;-68
2020/12/06 03:48:27;;;;;;;3.27;1.85;;;;;;;4.45;83.75;97940.28;1648888;86;21627;-67
2020/12/06 03:50:55;;;;;;;5.35;2.00;;;;;;;4.43;83.94;97938.30;1648958;87;21211;-67
2020/12/06 03:53:23;;;;;;;3.30;2.42;;;;;;;4.41;83.67;97932.88;1648962;86;21198;-67
2020/12/06 03:55:53;;;;;;;2.62;2.10;;;;;;;4.39;83.92;97928.32;1648636;86;21238;-67
2020/12/06 03:58:30;;;;;;;4.83;2.47;;;;;;;4.37;84.09;97928.41;1679233;85;21164;-67
2020/12/06 04:00:58;;;;;;;3.77;2.17;;;;;;;4.36;84.01;97929.33;1679330;85;21547;-66
2020/12/06 04:03:27;;;;;;;3.30;1.98;;;;;;;4.34;84.07;97927.34;1679434;84;21184;-66
2020/12/06 04:05:54;;;;;;;4.87;2.67;;;;;;;4.34;84.30;97924.77;1679589;85;21144;-66
2020/12/06 04:08:24;;;;;;;3.72;2.52;;;;;;;4.36;84.65;97924.68;1679390;85;21633;-66
2020/12/06 04:10:51;;;;;;;3.12;2.15;;;;;;;4.35;84.71;97923.03;1679451;85;21124;-68
2020/12/06 04:13:20;;;;;;;4.10;2.75;;;;;;;4.35;84.19;97916.14;1679460;84;21151;-66
2020/12/06 04:15:47;;;;;;;4.03;2.55;;;;;;;4.36;84.80;97916.97;1679719;85;21576;-66
2020/12/06 04:18:15;;;;;;;2.65;1.70;;;;;;;4.36;84.72;97913.11;1679711;85;21156;-66
2020/12/06 04:20:43;;;;;;;3.98;2.50;;;;;;;4.36;84.55;97919.54;1679242;84;21203;-66
2020/12/06 04:23:11;;;;;;;2.87;1.57;;;;;;;4.37;84.61;97925.02;1679512;84;21160;-66
2020/12/06 04:25:39;;;;;;;2.50;1.20;;;;;;;4.34;84.49;97920.91;1679485;85;21430;-66
2020/12/06 04:28:10;;;;;;;3.05;1.90;;;;;;;4.32;84.50;97918.10;1679272;85;21160;-71
2020/12/06 04:30:38;;;;;;;2.08;1.40;;;;;;;4.32;84.32;97921.95;1679446;85;21227;-72
2020/12/06 04:33:06;;;;;;;2.08;1.35;;;;;;;4.36;84.80;97918.25;1679232;85;21180;-73
2020/12/06 04:35:34;;;;;;;2.60;1.70;;;;;;;4.35;84.47;97920.45;1679153;85;21187;-72
2020/12/06 04:38:01;;;;;;;2.47;1.80;;;;;;;4.33;84.56;97915.41;1679240;85;21139;-72
2020/12/06 04:40:30;;;;;;;3.60;2.17;;;;;;;4.35;84.88;97923.03;1679168;84;21171;-72
2020/12/06 04:42:59;;;;;;;2.55;1.60;;;;;;;4.37;84.83;97925.84;1679376;85;21204;-71
2020/12/06 04:45:28;;;;;;;3.83;2.00;;;;;;;4.45;84.58;97921.00;1679314;85;21155;-72
2020/12/06 04:48:05;;;;;;;2.50;1.60;;;;;;;4.46;84.36;97921.82;1679165;84;21183;-72
2020/12/06 04:50:37;;;;;;;5.83;2.65;;;;;;;4.44;84.23;97922.38;1678923;85;21164;-66
2020/12/06 04:53:06;;;;;;;1.82;1.55;;;;;;;4.44;84.51;97920.63;1679141;84;21147;-68
2020/12/06 04:55:36;;;;;;;2.50;1.40;;;;;;;4.49;84.25;97916.00;1679383;84;21164;-66
2020/12/06 04:58:05;;;;;;;1.60;1.00;;;;;;;4.52;83.93;97917.06;1676843;85;21182;-67
2020/12/06 05:00:36;;;;;;;3.92;1.87;;;;;;;4.57;83.67;97915.47;1651018;86;21242;-66
2020/12/06 05:03:09;;;;;;;3.55;2.40;;;;;;;4.60;83.50;97910.93;1675944;86;21195;-66
2020/12/06 05:05:40;;;;;;;2.22;1.75;;;;;;;4.62;83.50;97912.13;1675934;86;21147;-66
2020/12/06 05:08:12;;;;;;;3.27;2.33;;;;;;;4.67;83.49;97910.85;1675876;86;21143;-70
2020/12/06 05:10:48;;;;;;;2.35;1.50;;;;;;;4.71;83.16;97918.72;1676258;85;21175;-74
2020/12/06 05:13:17;;;;;;;1.98;1.77;;;;;;;4.74;82.96;97925.41;1676886;85;21204;-71
2020/12/06 05:15:46;;;;;;;1.20;0.98;;;;;;;4.78;82.79;97928.13;1676263;85;21738;-67
2020/12/06 05:18:14;;;;;;;3.47;1.62;;;;;;;4.81;82.72;97927.91;1675788;86;21162;-67
2020/12/06 05:20:42;;;;;;;4.40;1.77;;;;;;;4.87;82.59;97924.89;1675872;86;21737;-66
2020/12/06 05:23:12;;;;;;;8.25;1.62;;;;;;;4.92;82.53;97924.11;1675919;86;21627;-66
2020/12/06 05:25:42;;;;;;;2.67;1.47;;;;;;;4.95;82.22;97923.06;1676100;86;21540;-71
2020/12/06 05:28:11;;;;;;;1.55;1.30;;;;;;;4.99;82.13;97942.04;1675972;86;21589;-70
2020/12/06 05:30:44;;;;;;;2.22;1.47;;;;;;;5.03;82.09;97947.79;1675755;86;21646;-71
2020/12/06 05:33:12;;;;;;;2.95;1.77;;;;;;;5.05;81.89;97957.53;1650929;86;21162;-70
2020/12/06 05:35:43;;;;;;;2.67;1.92;;;;;;;5.04;81.77;97955.42;1675881;86;21182;-70
2020/12/06 05:38:12;;;;;;;4.60;2.10;;;;;;;5.06;81.54;97951.42;1676482;85;21379;-70
2020/12/06 05:40:46;;;;;;;5.00;2.95;;;;;;;5.02;81.52;97946.97;1676113;85;21163;-71
2020/12/06 05:43:16;;;;;;;3.08;2.20;;;;;;;4.98;81.53;97956.33;1676268;86;21174;-71
2020/12/06 05:45:46;;;;;;;2.85;2.10;;;;;;;4.96;81.39;97960.28;1676270;85;21213;-69
2020/12/06 05:48:14;;;;;;;2.72;1.50;;;;;;;4.94;81.38;97959.55;1676596;86;21564;-67
2020/12/06 05:50:41;;;;;;;2.67;1.62;;;;;;;4.95;81.34;97966.34;1676305;86;21235;-67
2020/12/06 05:53:10;;;;;;;2.87;1.62;;;;;;;4.96;81.25;97963.31;1676148;86;21147;-67
2020/12/06 05:55:39;;;;;;;2.55;1.82;;;;;;;4.94;81.18;97960.84;1676166;86;21245;-68
2020/12/06 05:58:07;;;;;;;2.85;2.08;;;;;;;4.95;81.13;97972.78;1677964;85;21593;-66
2020/12/06 06:00:36;;;;;;;5.10;1.98;;;;;;;4.93;81.02;97972.55;1679288;85;21591;-66
2020/12/06 06:03:06;;;;;;;5.60;2.60;;;;;;;4.93;80.94;97960.50;1679199;84;21164;-66
2020/12/06 06:05:34;;;;;;;4.15;1.98;;;;;;;4.91;80.95;97963.63;1679314;84;21223;-70
2020/12/06 06:08:05;;;;;;;1.92;1.52;;;;;;;4.89;80.92;97968.54;1679137;84;21136;-67
2020/12/06 06:10:36;;;;;;;1.90;1.40;;;;;;;4.83;81.03;97960.77;1679130;85;21632;-66
2020/12/06 06:13:06;;;;;;;3.17;2.00;;;;;;;4.82;80.97;97952.72;1679266;85;21572;-71
2020/12/06 06:15:36;;;;;;;3.72;1.90;;;;;;;4.74;81.22;97951.97;1679193;85;21183;-66
2020/12/06 06:18:06;;;;;;;1.57;1.20;;;;;;;4.75;81.22;97951.47;1679407;85;21175;-66
2020/12/06 06:20:34;;;;;;;3.08;2.05;;;;;;;4.77;81.00;97950.45;1679511;85;21620;-67
2020/12/06 06:23:02;;;;;;;4.45;2.17;;;;;;;4.73;81.25;97952.89;1679434;85;21573;-70
2020/12/06 06:25:31;;;;;;;5.33;1.77;;;;;;;4.73;81.16;97952.06;1679530;85;21184;-72
2020/12/06 06:27:59;;;;;;;3.58;2.50;;;;;;;4.75;81.00;97951.47;1679257;84;21179;-70
2020/12/06 06:30:29;;;;;;;2.58;1.45;;;;;;;4.74;81.05;97948.56;1679360;85;21544;-70
2020/12/06 06:32:57;;;;;;;3.17;2.42;;;;;;;4.74;81.00;97951.97;1679812;84;21172;-70
2020/12/06 06:35:25;;;;;;;10.82;2.62;;;;;;;4.74;81.06;97957.57;1680269;85;21151;-70
2020/12/06 06:37:54;;;;;;;4.05;1.85;;;;;;;4.74;81.03;97949.85;1679674;85;21631;-71
2020/12/06 06:40:26;;;;;;;2.98;1.90;;;;;;;4.70;80.89;97944.11;1650794;84;21132;-70
2020/12/06 06:42:54;;;;;;;4.25;1.98;;;;;;;4.74;81.20;97953.71;1679096;85;21172;-72
2020/12/06 06:45:23;;;;;;;3.10;1.87;;;;;;;4.72;81.25;97950.41;1679135;85;21163;-71
2020/12/06 06:47:53;;;;;;;4.35;2.20;;;;;;;4.73;81.15;97946.91;1650556;85;21195;-71
2020/12/06 06:50:21;;;;;;;2.22;1.65;;;;;;;4.73;81.24;97950.77;1650672;85;21156;-71
2020/12/06 06:52:52;;;;;;;3.98;2.12;;;;;;;4.77;81.04;97948.34;1679160;84;21176;-67
2020/12/06 06:55:20;;;;;;;4.47;2.02;;;;;;;4.79;81.01;97952.45;1678791;85;21757;-68
2020/12/06 06:57:50;;;;;;;7.42;2.75;;;;;;;4.84;80.99;97946.16;1678138;85;21603;-66
2020/12/06 07:00:18;;;;;;;4.62;2.20;;;;;;;4.87;80.90;97953.66;1675979;86;21666;-69
2020/12/06 07:02:45;;;;;;;4.85;2.20;;;;;;;4.92;80.87;97943.87;1651263;86;21175;-67
2020/12/06 07:05:20;;;;;;;2.85;1.70;;;;;;;4.95;80.65;97943.65;1676636;86;21179;-67
2020/12/06 07:07:57;;;;;;;2.83;1.60;;;;;;;4.98;80.58;97944.74;1676258;86;21178;-66
2020/12/06 07:10:28;;;;;;;;;;;;;;;5.02;80.57;97944.88;1678314;86;21429;-69
2020/12/06 07:12:58;;;;;;;6.40;2.85;;;;;;;5.08;80.73;97949.13;1675701;86;20136;-68
2020/12/06 07:15:27;;;;;;;6.78;2.50;;;;;;;5.13;80.78;97939.79;1675994;86;21187;-68
2020/12/06 07:17:57;;;;;;;6.83;2.90;;;;;;;5.21;80.77;97928.48;1675827;86;21348;-68
2020/12/06 07:20:29;;;;;;;6.67;2.83;;;;;;;5.36;80.32;97934.27;1675843;86;21203;-68
2020/12/06 07:22:57;;;;;;;3.80;1.65;;;;;;;5.40;80.15;97930.08;1675817;86;21187;-68
2020/12/06 07:25:25;;;;;;;4.35;2.83;;;;;;;5.46;80.04;97936.06;1675984;85;21187;-68
2020/12/06 07:27:53;;;;;;;5.08;2.17;;;;;;;5.54;79.68;97932.47;1675923;86;21316;-68
2020/12/06 07:30:21;;;;;;;2.47;1.52;;;;;;;5.61;79.60;97935.41;1675900;86;21328;-68
2020/12/06 07:32:49;;;;;;;5.80;2.85;;;;;;;5.68;79.43;97929.69;1676006;86;21211;-68
2020/12/06 07:35:19;;;;;;;3.27;2.12;;;;;;;5.77;79.16;97924.33;1675832;85;21179;-68
2020/12/06 07:37:47;;;;;;;3.67;2.55;;;;;;;5.87;79.17;97927.91;1676146;86;21226;-68
2020/12/06 07:40:16;;;;;;;4.12;2.27;;;;;;;5.97;79.22;97934.47;1675977;86;21321;-68
2020/12/06 07:42:44;;;;;;;3.75;2.08;;;;;;;6.05;79.10;97933.44;1676009;86;21206;-69
2020/12/06 07:45:12;;;;;;;3.95;1.82;;;;;;;6.12;78.96;97931.56;1675985;86;21328;-68
2020/12/06 07:47:40;;;;;;;2.92;1.75;;;;;;;6.19;78.35;97931.45;1676084;86;21239;-67
2020/12/06 07:50:08;;;;;;;3.72;1.70;;;;;;;6.26;77.25;97928.42;1676925;86;21206;-68
2020/12/06 07:52:40;;;;;;;7.10;1.87;;;;;;;6.33;77.28;97932.17;1676957;86;21328;-68
2020/12/06 07:55:10;;;;;;;2.92;1.80;;;;;;;6.39;77.00;97924.78;1677017;86;21170;-72
2020/12/06 07:57:49;;;;;;;3.15;2.45;;;;;;;6.48;77.02;97930.53;1676950;84;21243;-72
2020/12/06 08:00:39;;;;;;;2.90;2.05;;;;;;;6.54;76.29;97930.05;1680447;85;21123;-71
2020/12/06 08:03:08;;;;;;;2.37;1.77;;;;;;;6.64;75.43;97932.75;1677126;85;21656;-72
2020/12/06 08:05:40;;;;;;;4.65;2.75;;;;;;;6.78;75.50;97938.11;1679478;85;21151;-72
2020/12/06 08:08:14;;;;;;;3.87;1.98;;;;;;;6.93;74.62;97933.86;1679278;84;21215;-72
2020/12/06 08:10:43;;;;;;;5.33;2.35;;;;;;;7.09;74.54;97927.84;1679452;85;21581;-72
2020/12/06 08:13:12;;;;;;;2.75;1.95;;;;;;;7.25;73.31;97933.07;1650677;85;21577;-72
2020/12/06 08:15:41;;;;;;;5.00;2.00;;;;;;;7.51;73.76;97939.54;1679413;85;21163;-72
2020/12/06 08:18:14;;;;;;;3.77;2.12;;;;;;;7.81;73.11;97925.91;1679452;85;21688;-72
2020/12/06 08:20:55;;;;;;;5.40;2.17;;;;;;;8.17;71.06;97921.53;1679394;84;21240;-72
2020/12/06 08:23:36;;;;;;;2.00;1.40;;;;;;;8.55;69.70;97917.88;1679333;85;21163;-72
2020/12/06 08:26:05;;;;;;;3.67;2.00;;;;;;;8.94;73.61;97916.68;1679464;85;21162;-72
2020/12/06 08:28:33;;;;;;;3.67;1.80;;;;;;;9.06;67.74;97911.22;1679335;85;21588;-72
2020/12/06 08:31:07;;;;;;;3.37;1.57;;;;;;;9.21;66.88;97911.67;1679182;84;21172;-72
2020/12/06 08:33:35;;;;;;;2.80;1.40;;;;;;;9.30;66.54;97911.34;1670268;85;21189;-72
2020/12/06 08:36:03;;;;;;;2.80;1.60;;;;;;;9.20;66.04;97906.14;1679243;84;21580;-72
2020/12/06 08:38:34;;;;;;;2.15;1.52;;;;;;;9.46;65.87;97906.41;1679208;84;21219;-72
2020/12/06 08:41:09;;;;;;;2.52;1.42;;;;;;;9.40;65.51;97904.37;1679245;85;21164;-72
2020/12/06 08:44:02;;;;;;;3.40;1.67;;;;;;;9.92;68.55;97905.19;1679451;85;21227;-72
2020/12/06 08:46:31;;;;;;;1.92;1.55;;;;;;;10.01;63.38;97905.66;1651624;87;21147;-68
2020/12/06 08:49:02;;;;;;;3.47;1.62;;;;;;;10.05;63.64;97900.18;1651755;87;21628;-68
2020/12/06 08:51:38;;;;;;;2.83;1.77;;;;;;;10.29;62.30;97890.17;1651934;86;21215;-69
2020/12/06 08:54:08;;;;;;;3.42;1.85;;;;;;;10.57;61.25;97882.74;1652237;87;21272;-68
2020/12/06 08:56:41;;;;;;;2.35;1.47;;;;;;;10.85;62.53;97883.55;1652121;86;21139;-69
2020/12/06 08:59:15;;;;;;;4.67;1.87;;;;;;;11.18;60.57;97879.48;1651810;87;21182;-69
2020/12/06 09:02:08;;;;;;;3.35;1.77;;;;;;;11.07;59.72;97875.33;1651802;86;21591;-70
2020/12/06 09:04:37;;;;;;;2.58;1.55;;;;;;;11.09;59.94;97877.79;1676218;85;21194;-69
2020/12/06 09:07:06;;;;;;;2.10;1.52;;;;;;;11.44;58.88;97867.36;1676042;85;21248;-70
2020/12/06 09:09:34;;;;;;;7.90;2.33;;;;;;;11.57;57.46;97863.89;1676050;85;21187;-70
2020/12/06 09:12:03;;;;;;;3.10;1.82;;;;;;;12.00;57.60;97857.05;1675933;85;21187;-71
2020/12/06 09:14:31;;;;;;;2.67;1.60;;;;;;;11.72;58.15;97864.19;1676005;85;21607;-71
2020/12/06 09:16:59;;;;;;;2.40;1.22;;;;;;;12.25;56.35;97850.54;1676010;85;21219;-69
2020/12/06 09:19:27;;;;;;;1.70;1.20;;;;;;;13.01;55.05;97845.22;1676177;85;21163;-70
2020/12/06 09:21:55;;;;;;;1.90;1.10;;;;;;;13.01;54.06;97849.13;1675998;85;21317;-69
2020/12/06 09:24:23;;;;;;;2.27;1.40;;;;;;;13.49;53.38;97843.17;1676108;85;21303;-70
2020/12/06 09:26:51;;;;;;;2.17;1.22;;;;;;;12.98;53.58;97846.85;1676609;85;21182;-72
2020/12/06 09:29:19;;;;;;;3.02;1.67;;;;;;;13.04;53.91;97852.72;1676399;85;21663;-70
2020/12/06 09:31:47;;;;;;;2.65;1.72;;;;;;;13.33;53.09;97842.36;1676219;85;21190;-72
2020/12/06 09:34:15;;;;;;;4.47;1.90;;;;;;;13.78;51.66;97839.55;1676243;85;21262;-70
2020/12/06 09:36:44;;;;;;;2.60;1.35;;;;;;;14.23;50.71;97839.45;1675962;85;21179;-70
2020/12/06 09:39:11;;;;;;;2.95;1.35;;;;;;;13.89;51.12;97827.94;1675969;85;21620;-70
2020/12/06 09:41:44;;;;;;;3.77;1.42;;;;;;;13.90;51.24;97824.84;1676123;85;21191;-70
2020/12/06 09:44:12;;;;;;;2.35;1.35;;;;;;;13.57;51.89;97811.87;1675874;85;21227;-69
2020/12/06 09:46:40;;;;;;;1.42;0.70;;;;;;;13.66;51.84;97817.38;1676093;85;21202;-73
2020/12/06 09:49:08;;;;;;;1.72;1.17;;;;;;;13.39;52.56;97822.95;1676053;85;21268;-70
2020/12/06 09:51:35;;;;;;;2.27;1.45;;;;;;;13.33;52.62;97818.39;1675932;85;21191;-69
2020/12/06 09:54:03;;;;;;;3.17;1.42;;;;;;;12.83;54.13;97814.58;1675958;85;21314;-69
2020/12/06 09:56:31;;;;;;;3.27;1.47;;;;;;;12.55;54.81;97799.69;1676098;85;21664;-69
2020/12/06 09:58:59;;;;;;;2.87;1.55;;;;;;;12.16;55.34;97819.41;1675939;85;21663;-68
2020/12/06 10:01:28;;;;;;;1.92;1.15;;;;;;;11.69;57.07;97806.76;1675945;85;21810;-68
2020/12/06 10:03:55;;;;;;;1.82;1.17;;;;;;;11.41;58.18;97816.48;1675995;85;21207;-68
2020/12/06 10:06:49;;;;;;;3.70;1.50;;;;;;;11.06;59.09;97816.99;1675983;85;21377;-68
2020/12/06 10:09:16;;;;;;;2.27;1.55;;;;;;;10.43;61.00;97811.81;1678512;84;21184;-69
2020/12/06 10:11:44;;;;;;;3.12;1.70;;;;;;;10.64;60.73;97820.17;1690848;83;21649;-67
2020/12/06 10:14:12;;;;;;;2.65;1.60;;;;;;;10.85;60.05;97809.52;1711321;82;21184;-69
2020/12/06 10:16:41;;;;;;;3.33;1.98;;;;;;;10.82;60.51;97804.11;1711319;82;21680;-69
2020/12/06 10:19:09;;;;;;;1.77;1.27;;;;;;;10.74;61.13;97795.42;1711479;82;21195;-69
2020/12/06 10:21:38;;;;;;;1.62;1.30;;;;;;;10.92;60.41;97799.68;1711213;82;21260;-69
2020/12/06 10:24:06;;;;;;;3.60;1.55;;;;;;;10.88;60.20;97798.34;1711136;82;21141;-67
2020/12/06 10:26:34;;;;;;;2.55;1.42;;;;;;;11.03;59.69;97794.73;1711601;82;21149;-67
2020/12/06 10:29:02;;;;;;;2.58;1.75;;;;;;;11.13;59.66;97793.33;1711493;82;21584;-67
2020/12/06 10:31:32;;;;;;;1.52;1.30;;;;;;;11.18;59.00;97782.02;1711367;82;21153;-67
2020/12/06 10:34:00;;;;;;;2.95;1.82;;;;;;;11.42;58.54;97783.50;1711399;82;21581;-68
2020/12/06 10:36:28;;;;;;;3.15;1.75;;;;;;;11.65;57.51;97776.82;1711288;82;21180;-69
2020/12/06 10:38:57;;;;;;;3.67;2.08;;;;;;;12.13;56.04;97787.18;1711238;82;21641;-69
2020/12/06 10:41:25;;;;;;;2.10;1.77;;;;;;;12.50;54.64;97788.11;1711762;82;21144;-69
2020/12/06 10:43:53;;;;;;;3.08;2.17;;;;;;;12.35;55.14;97787.91;1711355;84;21682;-69
2020/12/06 10:46:27;;;;;;;2.47;1.82;;;;;;;12.67;54.48;97790.61;1708099;84;21125;-70
2020/12/06 10:48:54;;;;;;;2.75;2.15;;;;;;;12.78;54.07;97794.20;1708262;84;21136;-70
2020/12/06 10:51:23;;;;;;;8.60;4.47;;;;;;;13.66;52.79;97793.08;1727665;83;21156;-69
2020/12/06 10:53:50;;;;;;;3.95;2.37;;;;;;;14.05;51.01;97777.47;1708185;83;21160;-69
2020/12/06 10:56:19;;;;;;;2.27;1.65;;;;;;;14.44;49.70;97771.78;1708381;84;21160;-70
2020/12/06 10:58:48;;;;;;;3.37;1.70;;;;;;;14.57;49.03;97765.52;1708224;83;21585;-69
2020/12/06 11:01:18;;;;;;;2.00;1.45;;;;;;;15.17;47.68;97751.18;1708415;82;21192;-69
2020/12/06 11:03:46;;;;;;;2.00;1.50;;;;;;;15.37;47.50;97756.73;1704330;84;21183;-69
2020/12/06 11:06:21;;;;;;;2.35;1.55;;;;;;;15.41;47.47;97749.33;1695434;85;21156;-70
2020/12/06 11:08:51;;;;;;;3.98;2.20;;;;;;;15.65;46.66;97746.52;1705110;83;21168;-70
2020/12/06 11:11:22;;;;;;;4.37;2.20;;;;;;;15.19;47.10;97749.70;1704618;84;21179;-68
2020/12/06 11:13:51;;;;;;;3.20;1.75;;;;;;;15.71;47.17;97741.06;1675077;86;21201;-70
2020/12/06 11:16:22;;;;;;;2.60;1.65;;;;;;;15.91;46.10;97744.25;1704801;84;21175;-70
2020/12/06 11:18:51;;;;;;;3.42;2.00;;;;;;;15.63;46.26;97728.88;1675022;86;21181;-69
2020/12/06 11:21:20;;;;;;;4.42;1.70;;;;;;;15.43;46.32;97730.36;1704651;84;21632;-69
2020/12/06 11:23:48;;;;;;;2.75;1.65;;;;;;;15.29;46.89;97722.79;1674948;84;21184;-70
2020/12/06 11:26:18;;;;;;;3.85;2.42;;;;;;;15.00;47.27;97715.70;1704589;84;21612;-70
2020/12/06 11:28:46;;;;;;;2.85;1.70;;;;;;;14.87;47.97;97715.48;1675042;84;21149;-70
2020/12/06 11:31:15;;;;;;;4.05;1.70;;;;;;;15.34;46.97;97715.23;1704757;84;21313;-68
2020/12/06 11:33:43;;;;;;;3.42;1.95;;;;;;;15.20;46.68;97713.41;1674961;86;21184;-69
2020/12/06 11:36:11;;;;;;;2.85;2.17;;;;;;;15.16;47.02;97708.22;1704730;84;21132;-68
2020/12/06 11:38:39;;;;;;;2.47;1.80;;;;;;;15.76;45.92;97710.72;1674881;84;21177;-68
2020/12/06 11:41:07;;;;;;;3.62;1.80;;;;;;;16.48;44.25;97701.61;1704664;84;21289;-69
2020/12/06 11:43:35;;;;;;;2.52;1.98;;;;;;;15.93;45.94;97690.40;1674866;86;21661;-69
2020/12/06 11:46:03;;;;;;;2.27;1.50;;;;;;;16.09;44.87;97691.51;1704636;84;21580;-70
2020/12/06 11:48:31;;;;;;;3.40;1.75;;;;;;;16.34;44.43;97684.92;1675018;86;21253;-69